Time;durP1;ratioP1;P1;durP2;ratioP2;P2;SDS_P1;SDS_P2;PMS_P1;PMS_P2;Temp;Humidity;BMP_temperature;BMP_pressure;BME280_temperature;BME280_humidity;BME280_pressure;Samples;Min_cycle;Max_cycle;Signal;HPM_P1;HPM_P2
2022/01/30 00:01:37;;;;;;;16.57;10.50;;;4.30;99.90;;;;;;5011997;28;20456;-90
2022/01/30 00:04:03;;;;;;;19.57;10.93;;;4.30;99.90;;;;;;4997390;28;20633;-90
2022/01/30 00:06:29;;;;;;;15.93;11.13;;;4.30;99.90;;;;;;4997132;28;20254;-90
2022/01/30 00:08:55;;;;;;;20.90;11.43;;;4.30;99.90;;;;;;4997443;28;20228;-90
2022/01/30 00:11:25;;;;;;;19.70;11.77;;;4.40;99.90;;;;;;4995835;28;20502;-91
2022/01/30 00:13:51;;;;;;;17.30;10.20;;;4.40;99.90;;;;;;4996964;28;20180;-91
2022/01/30 00:16:19;;;;;;;19.03;11.53;;;4.40;99.90;;;;;;4997003;28;20711;-91
2022/01/30 00:19:09;;;;;;;16.50;9.73;;;4.40;99.90;;;;;;5013062;28;20384;-90
2022/01/30 00:21:39;;;;;;;17.15;11.52;;;4.40;99.90;;;;;;4996967;28;20285;-91
2022/01/30 00:24:45;;;;;;;18.48;10.50;;;4.40;99.90;;;;;;4997348;28;20713;-91
2022/01/30 00:26:58;;;;;;;23.00;11.48;;;4.40;99.90;;;;;;4996689;28;20207;-90
2022/01/30 00:29:23;;;;;;;17.38;11.05;;;4.40;99.90;;;;;;5013317;28;20215;-91
2022/01/30 00:31:50;;;;;;;19.83;12.37;;;4.40;99.90;;;;;;4997104;28;20188;-91
2022/01/30 00:34:16;;;;;;;16.77;11.23;;;4.40;99.90;;;;;;4998546;28;20637;-90
2022/01/30 00:36:41;;;;;;;16.13;11.30;;;4.50;99.90;;;;;;4996885;28;20318;-90
2022/01/30 00:39:07;;;;;;;20.47;11.50;;;4.50;99.90;;;;;;4996836;28;20417;-91
2022/01/30 00:41:33;;;;;;;17.93;11.20;;;4.50;99.90;;;;;;4996905;28;20318;-90
2022/01/30 00:43:59;;;;;;;16.85;11.15;;;4.50;99.90;;;;;;4996642;28;20672;-91
2022/01/30 00:46:25;;;;;;;19.40;11.13;;;4.50;99.90;;;;;;4996617;28;20212;-91
2022/01/30 00:48:51;;;;;;;23.55;11.60;;;4.60;99.90;;;;;;4996940;28;20180;-89
2022/01/30 00:51:17;;;;;;;17.73;10.70;;;4.60;99.90;;;;;;4996778;28;20208;-90
2022/01/30 00:53:44;;;;;;;21.02;9.85;;;4.60;99.90;;;;;;4997243;28;20184;-90
2022/01/30 00:56:10;;;;;;;17.40;10.65;;;4.60;99.90;;;;;;4996477;28;20665;-92
2022/01/30 00:58:36;;;;;;;16.73;11.32;;;4.60;99.90;;;;;;4996650;28;20641;-90
2022/01/30 01:01:01;;;;;;;14.10;10.73;;;4.60;99.90;;;;;;4999375;28;20262;-91
2022/01/30 01:03:27;;;;;;;18.73;11.47;;;4.60;99.90;;;;;;5015124;28;20179;-90
2022/01/30 01:05:53;;;;;;;16.00;10.90;;;4.60;99.90;;;;;;5011736;28;20208;-91
2022/01/30 01:08:30;;;;;;;14.87;11.17;;;4.60;99.90;;;;;;4997690;28;20239;-90
2022/01/30 01:11:11;;;;;;;16.85;10.75;;;4.60;99.90;;;;;;4997908;28;20458;-90
2022/01/30 01:24:06;;;;;;;18.35;10.45;;;4.60;99.90;;;;;;5002959;28;20184;-90
2022/01/30 01:26:33;;;;;;;15.35;9.10;;;4.60;99.90;;;;;;4997628;28;20207;-90
2022/01/30 01:28:59;;;;;;;15.73;8.82;;;4.60;99.90;;;;;;4996117;28;20187;-90
2022/01/30 01:31:25;;;;;;;15.77;10.10;;;4.70;99.90;;;;;;4995970;28;20261;-91
2022/01/30 01:36:36;;;;;;;15.63;9.32;;;4.70;99.90;;;;;;4996631;28;20269;-90
2022/01/30 01:39:03;;;;;;;12.93;7.78;;;4.70;99.90;;;;;;4995689;28;20575;-91
2022/01/30 01:41:31;;;;;;;13.50;9.75;;;4.70;99.90;;;;;;4995636;28;20207;-90
2022/01/30 01:43:58;;;;;;;19.70;9.32;;;4.70;99.90;;;;;;4995394;28;20188;-90
2022/01/30 01:46:28;;;;;;;12.50;7.03;;;4.60;99.90;;;;;;4995070;28;20203;-90
2022/01/30 01:48:54;;;;;;;12.05;8.50;;;4.60;99.90;;;;;;4995287;28;20263;-90
2022/01/30 01:51:25;;;;;;;15.77;8.13;;;4.60;99.90;;;;;;4995409;28;20602;-90
2022/01/30 01:53:56;;;;;;;17.83;9.68;;;4.60;99.90;;;;;;4995353;28;20439;-90
2022/01/30 01:56:22;;;;;;;15.55;9.98;;;4.50;99.90;;;;;;4996522;28;20202;-90
2022/01/30 01:58:49;;;;;;;11.77;8.70;;;4.50;99.90;;;;;;4995221;28;20211;-91
2022/01/30 02:01:15;;;;;;;18.10;9.30;;;4.50;99.90;;;;;;4994698;28;20212;-90
2022/01/30 02:03:41;;;;;;;15.40;10.00;;;4.50;99.90;;;;;;4995153;28;20203;-91
2022/01/30 02:06:12;;;;;;;13.52;8.93;;;4.50;99.90;;;;;;4995052;28;20211;-90
2022/01/30 02:08:42;;;;;;;16.00;9.70;;;4.50;99.90;;;;;;5000928;28;20242;-91
2022/01/30 02:24:43;;;;;;;16.58;9.32;;;4.40;99.90;;;;;;4995939;28;20167;-90
2022/01/30 02:27:14;;;;;;;15.95;10.10;;;4.40;99.90;;;;;;4994558;28;20198;-90
2022/01/30 02:29:40;;;;;;;12.60;8.77;;;4.50;99.90;;;;;;4994958;28;20219;-91
2022/01/30 02:32:06;;;;;;;15.73;9.70;;;4.50;99.90;;;;;;4995740;28;20207;-90
2022/01/30 02:34:33;;;;;;;14.02;9.60;;;4.50;99.90;;;;;;4993986;28;20420;-91
2022/01/30 02:36:59;;;;;;;14.35;8.80;;;4.50;99.90;;;;;;4997576;28;20716;-90
2022/01/30 02:39:26;;;;;;;21.23;10.48;;;4.50;99.90;;;;;;4996580;28;20259;-90
2022/01/30 02:41:53;;;;;;;13.85;10.00;;;4.50;99.90;;;;;;5014030;28;20184;-89
2022/01/30 02:46:54;;;;;;;12.52;8.85;;;4.50;99.90;;;;;;5014384;28;20175;-89
2022/01/30 02:54:20;;;;;;;14.40;9.30;;;4.60;99.90;;;;;;4995625;28;20214;-90
2022/01/30 02:56:46;;;;;;;15.32;9.05;;;4.60;99.90;;;;;;4994525;28;20187;-91
2022/01/30 02:59:13;;;;;;;22.90;10.23;;;4.60;99.90;;;;;;4994419;28;20222;-91
2022/01/30 03:01:39;;;;;;;13.60;9.93;;;4.50;99.90;;;;;;4994340;28;20188;-90
2022/01/30 03:04:07;;;;;;;14.38;10.07;;;4.60;99.90;;;;;;4999123;28;20180;-91
2022/01/30 03:06:33;;;;;;;15.68;9.50;;;4.50;99.90;;;;;;5000513;28;20266;-91
2022/01/30 03:08:58;;;;;;;18.17;8.33;;;4.50;99.90;;;;;;4994085;28;20235;-90
2022/01/30 03:11:25;;;;;;;16.77;10.07;;;4.50;99.90;;;;;;4994269;28;20208;-91
2022/01/30 03:13:51;;;;;;;16.92;10.00;;;4.50;99.90;;;;;;5010278;28;20176;-91
2022/01/30 03:16:16;;;;;;;15.07;10.07;;;4.50;99.90;;;;;;4994180;28;20261;-91
2022/01/30 03:18:43;;;;;;;18.53;11.33;;;4.50;99.90;;;;;;4993734;28;20417;-90
2022/01/30 03:21:09;;;;;;;16.50;9.68;;;4.50;99.90;;;;;;4994009;28;20567;-90
2022/01/30 03:23:38;;;;;;;19.23;11.73;;;4.50;99.90;;;;;;4994333;28;20180;-91
2022/01/30 03:26:05;;;;;;;14.65;10.82;;;4.40;99.90;;;;;;4996891;28;20442;-90
2022/01/30 03:28:32;;;;;;;14.32;9.90;;;4.40;99.90;;;;;;4995819;28;20187;-91
2022/01/30 03:31:06;;;;;;;14.75;9.98;;;4.40;99.90;;;;;;4993937;28;20223;-90
2022/01/30 03:33:31;;;;;;;16.92;9.80;;;4.40;99.90;;;;;;4994420;28;20262;-90
2022/01/30 03:35:57;;;;;;;13.07;8.87;;;4.40;99.90;;;;;;4999129;28;20239;-91
2022/01/30 03:38:25;;;;;;;14.40;9.03;;;4.40;99.90;;;;;;4996944;28;20410;-90
2022/01/30 03:40:52;;;;;;;16.33;9.80;;;4.40;99.90;;;;;;4993786;28;20440;-90
2022/01/30 03:43:18;;;;;;;11.10;8.32;;;4.30;99.90;;;;;;4994243;28;20540;-91
2022/01/30 03:45:45;;;;;;;17.10;9.82;;;4.30;99.90;;;;;;4995384;28;20680;-91
2022/01/30 03:48:12;;;;;;;18.42;8.70;;;4.30;99.90;;;;;;4997444;28;20180;-91
2022/01/30 03:50:38;;;;;;;12.10;7.88;;;4.40;99.90;;;;;;4997375;28;20250;-91
2022/01/30 03:53:05;;;;;;;18.95;11.15;;;4.40;99.90;;;;;;4997420;28;20175;-91
2022/01/30 03:55:30;;;;;;;496.48;177.60;;;4.40;99.90;;;;;;4997519;28;20196;-90
2022/01/30 03:57:57;;;;;;;224.93;88.37;;;4.40;99.90;;;;;;4997330;28;20523;-91
2022/01/30 04:00:23;;;;;;;264.77;104.57;;;4.40;99.90;;;;;;4997214;28;20408;-91
2022/01/30 04:02:49;;;;;;;42.35;24.27;;;4.40;99.90;;;;;;4997191;28;20194;-91
2022/01/30 04:05:16;;;;;;;66.70;39.53;;;4.40;99.90;;;;;;4997026;28;20298;-90
2022/01/30 04:07:44;;;;;;;20.65;14.85;;;4.40;99.90;;;;;;4997499;28;20439;-91
2022/01/30 04:10:10;;;;;;;18.98;12.20;;;4.40;99.90;;;;;;4997098;28;20240;-90
2022/01/30 04:12:36;;;;;;;10.80;8.10;;;4.50;99.90;;;;;;4999985;28;20198;-91
2022/01/30 04:15:03;;;;;;;11.48;8.95;;;4.50;99.90;;;;;;5002543;28;20199;-90
2022/01/30 04:17:29;;;;;;;14.23;11.07;;;4.40;99.90;;;;;;4997713;28;20669;-90
2022/01/30 04:19:55;;;;;;;14.85;9.70;;;4.40;99.90;;;;;;5010546;28;20207;-91
2022/01/30 04:22:21;;;;;;;17.48;13.25;;;4.40;99.90;;;;;;5012840;28;20191;-90
2022/01/30 04:24:47;;;;;;;19.00;11.30;;;4.30;99.90;;;;;;5015244;28;20226;-90
2022/01/30 04:27:13;;;;;;;16.53;12.13;;;4.30;99.90;;;;;;5003329;28;20426;-91
2022/01/30 04:29:40;;;;;;;17.50;12.48;;;4.30;99.90;;;;;;4996225;28;20226;-91
2022/01/30 04:32:06;;;;;;;15.18;10.30;;;4.30;99.90;;;;;;4997563;28;20188;-91
2022/01/30 04:34:32;;;;;;;12.07;9.07;;;4.20;99.90;;;;;;4996839;28;20215;-91
2022/01/30 04:37:02;;;;;;;12.63;9.02;;;4.20;99.90;;;;;;4996800;28;20191;-90
2022/01/30 04:42:23;;;;;;;15.10;10.40;;;4.20;99.90;;;;;;4997906;28;20652;-91
2022/01/30 04:53:16;;;;;;;14.65;9.50;;;4.00;99.90;;;;;;4997804;28;20645;-90
2022/01/30 05:03:43;;;;;;;18.70;13.65;;;3.90;99.90;;;;;;4998115;28;20191;-91
2022/01/30 05:06:14;;;;;;;28.88;21.55;;;3.90;99.90;;;;;;4995916;28;20222;-90
2022/01/30 05:08:40;;;;;;;25.92;15.00;;;3.90;99.90;;;;;;5000883;28;20576;-90
2022/01/30 05:11:08;;;;;;;17.48;11.35;;;3.90;99.90;;;;;;4996335;28;20223;-90
2022/01/30 05:13:38;;;;;;;14.50;11.00;;;3.90;99.90;;;;;;5004749;28;20232;-90
2022/01/30 05:16:04;;;;;;;15.27;9.88;;;3.90;99.90;;;;;;5006004;28;20207;-91
2022/01/30 05:18:31;;;;;;;14.57;9.05;;;3.90;99.90;;;;;;5012441;28;20179;-90
2022/01/30 05:20:57;;;;;;;13.07;8.65;;;3.90;99.90;;;;;;5000723;28;20214;-90
2022/01/30 05:23:24;;;;;;;15.25;9.45;;;4.00;99.90;;;;;;4995667;28;20227;-91
2022/01/30 05:25:52;;;;;;;12.65;9.32;;;4.00;99.90;;;;;;4996020;28;20203;-90
2022/01/30 05:28:19;;;;;;;14.18;8.38;;;4.00;99.90;;;;;;4995759;28;20186;-90
2022/01/30 05:30:45;;;;;;;20.90;9.95;;;4.00;99.90;;;;;;4995738;28;20270;-90
2022/01/30 05:33:12;;;;;;;12.75;8.77;;;3.90;99.90;;;;;;4995962;28;20254;-90
2022/01/30 05:35:39;;;;;;;15.07;8.75;;;3.90;99.90;;;;;;4995342;28;20804;-90
2022/01/30 05:38:05;;;;;;;11.90;9.70;;;3.90;99.90;;;;;;4995982;28;20183;-90
2022/01/30 05:40:35;;;;;;;16.50;10.20;;;3.90;99.90;;;;;;4995872;28;20196;-91
2022/01/30 05:43:01;;;;;;;11.77;8.98;;;3.90;99.90;;;;;;4996766;28;20254;-90
2022/01/30 05:45:49;;;;;;;12.57;8.88;;;3.90;99.90;;;;;;5004903;28;20207;-92
2022/01/30 05:48:17;;;;;;;16.45;8.70;;;3.90;99.90;;;;;;4996002;28;20188;-90
2022/01/30 05:50:44;;;;;;;9.00;7.97;;;3.90;99.90;;;;;;5009248;28;20226;-91
2022/01/30 05:53:10;;;;;;;18.05;10.00;;;3.90;99.90;;;;;;4995025;28;20183;-90
2022/01/30 05:55:36;;;;;;;15.98;9.57;;;3.80;99.90;;;;;;4995476;28;20254;-90
2022/01/30 05:58:03;;;;;;;13.37;9.13;;;3.90;99.90;;;;;;4995249;28;20577;-90
2022/01/30 06:00:29;;;;;;;13.20;9.20;;;3.90;99.90;;;;;;4995127;28;20445;-90
2022/01/30 06:02:55;;;;;;;16.17;8.77;;;3.90;99.90;;;;;;4995080;28;20195;-91
2022/01/30 06:05:23;;;;;;;22.30;14.13;;;3.90;99.90;;;;;;4994622;28;20458;-91
2022/01/30 06:07:55;;;;;;;26.45;16.02;;;3.90;99.90;;;;;;4994689;28;20195;-91
2022/01/30 06:10:23;;;;;;;25.13;13.88;;;3.90;99.90;;;;;;4995357;28;20242;-91
2022/01/30 06:12:49;;;;;;;16.63;11.60;;;3.90;99.90;;;;;;4996302;28;20637;-91
2022/01/30 06:15:15;;;;;;;13.13;8.93;;;3.90;99.90;;;;;;5000009;28;20206;-91
2022/01/30 06:17:42;;;;;;;12.50;8.90;;;3.90;99.90;;;;;;4997328;28;20408;-91
2022/01/30 06:20:09;;;;;;;13.13;9.18;;;3.90;99.90;;;;;;4994717;28;20204;-91
2022/01/30 06:22:35;;;;;;;28.45;17.95;;;3.90;99.90;;;;;;4999603;28;20282;-90
2022/01/30 06:25:01;;;;;;;42.47;23.48;;;3.90;99.90;;;;;;5006440;28;20203;-91
2022/01/30 06:27:27;;;;;;;49.87;28.23;;;3.90;99.90;;;;;;5010443;28;20188;-91
2022/01/30 06:29:53;;;;;;;38.67;22.48;;;4.00;99.90;;;;;;4994286;28;20479;-91
2022/01/30 06:32:19;;;;;;;40.10;27.13;;;4.00;99.90;;;;;;4994569;28;20319;-91
2022/01/30 06:34:45;;;;;;;44.10;29.10;;;4.00;99.90;;;;;;4994250;28;20249;-91
2022/01/30 06:37:10;;;;;;;25.57;14.87;;;4.00;99.90;;;;;;4994797;28;20184;-91
2022/01/30 06:39:36;;;;;;;16.63;11.40;;;4.00;99.90;;;;;;4994622;28;20438;-92
2022/01/30 06:42:02;;;;;;;13.37;8.87;;;4.10;99.90;;;;;;4994616;28;20267;-89
2022/01/30 06:44:28;;;;;;;12.03;9.70;;;4.10;99.90;;;;;;4994463;28;20270;-91
2022/01/30 06:46:54;;;;;;;16.93;9.17;;;4.10;99.90;;;;;;4994381;28;20432;-90
2022/01/30 06:49:20;;;;;;;13.77;8.90;;;4.20;99.90;;;;;;4994511;28;20496;-91
2022/01/30 06:51:46;;;;;;;10.85;7.10;;;4.20;99.90;;;;;;5010447;28;20787;-91
2022/01/30 06:54:11;;;;;;;52.90;28.30;;;4.30;99.90;;;;;;4994555;28;20182;-91
2022/01/30 06:56:37;;;;;;;66.17;30.07;;;4.30;99.90;;;;;;4994106;28;20445;-91
2022/01/30 06:59:03;;;;;;;121.25;50.20;;;4.40;99.90;;;;;;4998612;28;20454;-91
2022/01/30 07:01:29;;;;;;;26.03;14.10;;;4.40;99.90;;;;;;4998082;28;20204;-90
2022/01/30 07:03:55;;;;;;;93.17;36.20;;;4.50;99.90;;;;;;4999848;28;20204;-91
2022/01/30 07:06:21;;;;;;;114.13;46.00;;;4.50;99.90;;;;;;5006538;28;20204;-90
2022/01/30 07:08:48;;;;;;;40.57;21.67;;;4.60;99.90;;;;;;4998162;28;20326;-91
2022/01/30 07:11:15;;;;;;;26.85;13.27;;;4.70;99.90;;;;;;4993850;28;20518;-90
2022/01/30 07:13:42;;;;;;;17.48;12.48;;;4.80;99.90;;;;;;4993992;28;20176;-91
2022/01/30 07:16:08;;;;;;;17.05;11.48;;;4.80;99.90;;;;;;4994861;28;20290;-91
2022/01/30 07:18:33;;;;;;;10.85;7.45;;;5.00;99.90;;;;;;4993862;28;20203;-92
2022/01/30 07:20:59;;;;;;;12.50;6.30;;;5.10;99.90;;;;;;4995221;28;20202;-91
2022/01/30 07:23:26;;;;;;;17.13;12.40;;;5.20;99.90;;;;;;4997689;28;20418;-92
2022/01/30 07:25:52;;;;;;;10.25;7.78;;;5.50;99.90;;;;;;4997245;28;20437;-91
2022/01/30 07:28:18;;;;;;;23.93;15.40;;;5.80;99.90;;;;;;4997829;28;20279;-91
2022/01/30 07:30:44;;;;;;;17.73;8.17;;;6.30;99.90;;;;;;4997844;28;20476;-91
2022/01/30 07:33:09;;;;;;;24.07;16.00;;;6.80;99.90;;;;;;4998082;28;20429;-92
2022/01/30 07:35:38;;;;;;;12.60;7.00;;;7.20;99.90;;;;;;4997211;28;20445;-90
2022/01/30 07:38:04;;;;;;;7.35;5.50;;;7.40;99.90;;;;;;4997542;28;20889;-91
2022/01/30 07:40:34;;;;;;;10.23;6.22;;;7.60;99.90;;;;;;5013646;28;20572;-92
2022/01/30 07:42:59;;;;;;;11.77;6.65;;;7.70;99.90;;;;;;4998235;28;20186;-90
2022/01/30 07:45:26;;;;;;;17.83;8.80;;;7.80;99.90;;;;;;4997266;28;20195;-90
2022/01/30 07:47:51;;;;;;;12.32;8.32;;;7.90;99.90;;;;;;4997457;28;20262;-90
2022/01/30 07:50:17;;;;;;;9.50;6.60;;;8.00;99.90;;;;;;4996892;28;20262;-91
2022/01/30 07:52:44;;;;;;;9.73;6.30;;;8.10;99.90;;;;;;4997622;28;20183;-91
2022/01/30 07:55:14;;;;;;;10.80;7.72;;;8.20;99.90;;;;;;4997418;28;20196;-89
2022/01/30 07:57:41;;;;;;;12.18;7.53;;;8.40;99.90;;;;;;4997354;28;20183;-91
2022/01/30 08:00:07;;;;;;;13.75;6.55;;;8.60;99.90;;;;;;4997247;28;20208;-90
2022/01/30 08:02:34;;;;;;;10.20;6.40;;;8.90;99.90;;;;;;4997696;28;20181;-91
2022/01/30 08:05:00;;;;;;;9.02;6.25;;;9.00;99.90;;;;;;5007771;28;20207;-90
2022/01/30 08:07:27;;;;;;;8.17;5.20;;;9.00;99.90;;;;;;5013860;28;20236;-91
2022/01/30 08:09:52;;;;;;;9.23;5.15;;;8.90;99.90;;;;;;4998075;28;20239;-91
2022/01/30 08:12:19;;;;;;;8.48;5.32;;;8.80;99.90;;;;;;4997662;28;20188;-91
2022/01/30 08:14:46;;;;;;;5.53;4.63;;;8.70;99.90;;;;;;5009590;28;20291;-90
2022/01/30 08:17:18;;;;;;;6.78;5.57;;;9.00;99.90;;;;;;5009138;28;20188;-90
2022/01/30 08:19:46;;;;;;;8.77;5.35;;;9.30;99.90;;;;;;5006608;28;20202;-92
2022/01/30 08:22:12;;;;;;;5.72;4.35;;;9.40;99.90;;;;;;4996999;28;20180;-91
2022/01/30 08:24:38;;;;;;;7.20;4.30;;;9.40;99.90;;;;;;4996933;28;20215;-90
2022/01/30 08:27:05;;;;;;;6.90;4.95;;;9.60;99.90;;;;;;4996680;28;20535;-91
2022/01/30 08:29:31;;;;;;;6.50;4.57;;;9.70;99.90;;;;;;4996227;28;20230;-91
2022/01/30 08:31:58;;;;;;;6.30;4.57;;;9.70;99.90;;;;;;4995224;28;20187;-91
2022/01/30 08:34:24;;;;;;;7.82;4.70;;;9.80;99.90;;;;;;4997049;28;20183;-90
2022/01/30 08:36:50;;;;;;;6.38;4.25;;;9.90;99.90;;;;;;4996391;28;20191;-91
2022/01/30 08:39:16;;;;;;;4.10;3.47;;;10.00;99.90;;;;;;4996145;28;20210;-91
2022/01/30 08:41:42;;;;;;;5.90;3.43;;;10.20;99.90;;;;;;4996936;28;20180;-92
2022/01/30 08:44:08;;;;;;;6.00;3.65;;;11.00;99.90;;;;;;4997159;28;20421;-90
2022/01/30 08:46:35;;;;;;;3.83;3.40;;;12.00;99.90;;;;;;5003044;28;20199;-91
2022/01/30 08:49:01;;;;;;;5.85;3.40;;;12.50;99.90;;;;;;5001924;28;20421;-91
2022/01/30 08:51:27;;;;;;;7.65;3.60;;;12.60;99.90;;;;;;5000626;28;20341;-91
2022/01/30 08:53:53;;;;;;;4.75;3.60;;;12.30;99.90;;;;;;5000446;28;20206;-90
2022/01/30 08:56:21;;;;;;;4.67;3.30;;;12.00;99.90;;;;;;5001944;28;20204;-90
2022/01/30 08:58:48;;;;;;;7.78;3.72;;;11.60;99.90;;;;;;4996408;28;21021;-91
2022/01/30 09:01:14;;;;;;;3.65;2.88;;;11.40;99.90;;;;;;5002774;28;20290;-90
2022/01/30 09:03:40;;;;;;;4.13;3.10;;;11.30;99.90;;;;;;5007973;28;20238;-92
2022/01/30 09:06:06;;;;;;;6.03;2.93;;;11.60;99.90;;;;;;5004646;28;20227;-90
2022/01/30 09:08:32;;;;;;;4.20;3.30;;;12.20;99.90;;;;;;5011314;28;20452;-90
2022/01/30 09:10:59;;;;;;;5.47;3.43;;;12.90;99.90;;;;;;5010572;28;20219;-91
2022/01/30 09:13:25;;;;;;;4.10;2.93;;;13.50;99.90;;;;;;5013998;28;20450;-91
2022/01/30 09:15:56;;;;;;;5.30;2.57;;;14.00;99.90;;;;;;4996310;28;20491;-91
2022/01/30 09:18:24;;;;;;;4.27;2.40;;;14.50;99.20;;;;;;4995380;28;20497;-92
2022/01/30 09:20:50;;;;;;;3.80;2.50;;;14.80;98.10;;;;;;4995111;28;20437;-92
2022/01/30 09:23:17;;;;;;;4.10;2.60;;;15.20;97.30;;;;;;4995625;28;20414;-92
2022/01/30 09:25:43;;;;;;;5.43;3.60;;;15.60;96.60;;;;;;4995294;28;20799;-91
2022/01/30 09:28:09;;;;;;;6.50;3.00;;;16.10;95.30;;;;;;4995604;28;20437;-91
2022/01/30 09:30:35;;;;;;;5.10;3.47;;;16.60;94.10;;;;;;4996004;28;20473;-91
2022/01/30 09:33:01;;;;;;;3.43;3.00;;;17.00;92.20;;;;;;4998996;28;20436;-92
2022/01/30 09:35:27;;;;;;;6.87;3.00;;;17.20;91.10;;;;;;4994960;28;20487;-91
2022/01/30 09:37:53;;;;;;;4.20;2.70;;;17.20;90.60;;;;;;4995143;28;20437;-91
2022/01/30 09:40:19;;;;;;;4.97;2.77;;;17.30;90.10;;;;;;4995786;28;20453;-91
2022/01/30 09:42:46;;;;;;;3.53;2.50;;;17.30;87.90;;;;;;4999174;28;20426;-91
2022/01/30 09:45:14;;;;;;;4.03;2.63;;;17.20;88.00;;;;;;5014587;28;20207;-92
2022/01/30 09:47:41;;;;;;;2.50;2.20;;;17.10;88.20;;;;;;5002318;28;20901;-91
2022/01/30 09:50:08;;;;;;;3.30;2.03;;;16.80;87.20;;;;;;4995032;28;20479;-91
2022/01/30 09:52:36;;;;;;;4.13;2.20;;;16.70;87.00;;;;;;4995026;28;20432;-92
2022/01/30 09:55:03;;;;;;;4.43;2.80;;;16.30;87.00;;;;;;4995501;28;20441;-91
2022/01/30 09:57:29;;;;;;;2.57;2.37;;;16.00;87.50;;;;;;4995231;28;20426;-90
2022/01/30 09:59:58;;;;;;;2.40;2.07;;;15.80;87.70;;;;;;4995520;28;21016;-91
2022/01/30 10:02:28;;;;;;;3.87;2.70;;;15.70;87.70;;;;;;4994230;28;20629;-92
2022/01/30 10:04:54;;;;;;;3.87;2.13;;;15.80;88.00;;;;;;4993619;28;20985;-92
2022/01/30 10:07:22;;;;;;;5.03;2.10;;;15.90;87.20;;;;;;4994287;28;20448;-91
2022/01/30 10:09:51;;;;;;;3.87;2.33;;;15.90;86.70;;;;;;4994524;28;20516;-91
2022/01/30 10:12:22;;;;;;;3.20;2.10;;;15.80;86.60;;;;;;4995356;28;20430;-90
2022/01/30 10:14:54;;;;;;;3.63;2.00;;;15.60;87.20;;;;;;5000225;28;20449;-92
2022/01/30 10:17:38;;;;;;;2.70;1.87;;;15.40;87.30;;;;;;4995018;28;20438;-91
2022/01/30 10:20:06;;;;;;;4.83;2.77;;;15.30;86.10;;;;;;4994833;28;20448;-91
2022/01/30 10:22:33;;;;;;;2.90;2.60;;;15.10;86.60;;;;;;4994646;28;20433;-91
2022/01/30 10:24:59;;;;;;;10.80;2.83;;;15.00;87.10;;;;;;4994804;28;20981;-91
2022/01/30 10:27:27;;;;;;;5.07;2.77;;;14.80;87.30;;;;;;4994472;28;20429;-90
2022/01/30 10:30:01;;;;;;;9.90;2.87;;;14.70;87.30;;;;;;4994156;28;20527;-92
2022/01/30 10:32:27;;;;;;;5.87;2.73;;;14.70;87.50;;;;;;4994584;28;20436;-91
2022/01/30 10:35:20;;;;;;;9.13;2.90;;;14.60;88.30;;;;;;4996382;28;20693;-91
2022/01/30 10:37:46;;;;;;;5.80;3.10;;;14.60;87.90;;;;;;5004484;28;20446;-90
2022/01/30 10:40:17;;;;;;;4.33;2.80;;;14.50;87.20;;;;;;4994856;28;20445;-92
2022/01/30 10:42:51;;;;;;;5.00;2.30;;;14.50;87.80;;;;;;4994563;28;20433;-92
2022/01/30 10:45:33;;;;;;;9.33;2.50;;;14.30;87.60;;;;;;4993113;28;20452;-91
2022/01/30 10:48:21;;;;;;;5.47;2.83;;;14.10;87.40;;;;;;4999452;28;20455;-90
2022/01/30 10:50:48;;;;;;;4.80;2.40;;;13.80;89.00;;;;;;4994630;28;20477;-91
2022/01/30 10:53:25;;;;;;;6.80;2.57;;;13.50;89.50;;;;;;4994262;28;20449;-91
2022/01/30 10:55:51;;;;;;;3.63;1.97;;;13.30;90.00;;;;;;4993477;28;20978;-91
2022/01/30 10:58:20;;;;;;;5.53;2.10;;;13.20;90.30;;;;;;4994538;28;20444;-91
2022/01/30 11:00:52;;;;;;;6.87;2.30;;;13.10;90.00;;;;;;4993854;28;20541;-91
2022/01/30 11:03:45;;;;;;;2.53;1.40;;;13.00;90.10;;;;;;4994086;28;20520;-91
2022/01/30 11:06:14;;;;;;;3.00;1.63;;;13.10;90.20;;;;;;4994338;28;20508;-91
2022/01/30 11:08:44;;;;;;;10.90;2.50;;;13.20;88.00;;;;;;4994792;28;20469;-91
2022/01/30 11:11:31;;;;;;;14.03;2.30;;;13.30;84.70;;;;;;4997677;28;20485;-90
2022/01/30 11:19:19;;;;;;;8.30;2.63;;;13.50;82.50;;;;;;5002254;28;20417;-90
2022/01/30 11:21:49;;;;;;;4.77;2.43;;;13.50;82.00;;;;;;4996014;28;20433;-91
2022/01/30 11:24:16;;;;;;;7.50;2.40;;;13.50;82.90;;;;;;4996436;28;20540;-90
2022/01/30 11:26:44;;;;;;;3.70;1.60;;;13.50;82.80;;;;;;4995325;28;20430;-90
2022/01/30 11:29:11;;;;;;;4.90;1.97;;;13.50;82.40;;;;;;4994936;28;20413;-91
2022/01/30 11:31:38;;;;;;;4.87;2.00;;;13.40;82.90;;;;;;4998251;28;20460;-91
2022/01/30 11:34:04;;;;;;;8.10;2.27;;;13.40;83.30;;;;;;4998174;28;20467;-90
2022/01/30 11:36:33;;;;;;;7.07;2.13;;;13.40;82.60;;;;;;5003790;28;20484;-91
2022/01/30 11:39:01;;;;;;;8.73;3.17;;;13.40;82.80;;;;;;5000429;28;20472;-91
2022/01/30 11:41:30;;;;;;;9.47;2.50;;;13.40;83.10;;;;;;4994738;28;20458;-91
2022/01/30 11:44:18;;;;;;;15.70;2.73;;;13.40;83.80;;;;;;4994959;28;20435;-92
2022/01/30 11:46:57;;;;;;;25.77;4.20;;;13.30;82.60;;;;;;4998536;28;20434;-92
2022/01/30 11:49:37;;;;;;;32.53;5.80;;;13.20;82.80;;;;;;5000433;28;20421;-91
2022/01/30 11:52:04;;;;;;;27.40;5.30;;;13.00;83.00;;;;;;4991430;28;20434;-91
2022/01/30 11:54:53;;;;;;;33.63;5.70;;;12.90;85.00;;;;;;4995023;28;20453;-92
2022/01/30 11:57:22;;;;;;;71.60;10.60;;;12.70;87.70;;;;;;4993201;28;20591;-90
2022/01/30 11:59:54;;;;;;;58.27;7.20;;;12.50;89.20;;;;;;4993442;28;20441;-91
2022/01/30 12:02:23;;;;;;;51.47;5.90;;;12.30;90.30;;;;;;4993941;28;20487;-91
2022/01/30 12:04:58;;;;;;;40.03;7.25;;;12.10;91.30;;;;;;4974257;28;20235;-90
2022/01/30 12:07:37;;;;;;;38.25;5.10;;;12.00;92.10;;;;;;5015231;28;20235;-91
2022/01/30 12:10:15;;;;;;;29.35;4.43;;;11.90;92.90;;;;;;4999005;28;20242;-91
2022/01/30 12:12:50;;;;;;;34.75;3.70;;;11.90;93.30;;;;;;4996973;28;20187;-92
2022/01/30 12:15:38;;;;;;;15.40;2.88;;;11.90;92.90;;;;;;4997023;28;20195;-91
2022/01/30 12:18:07;;;;;;;30.55;6.47;;;11.90;92.40;;;;;;4997067;28;20229;-91
2022/01/30 12:20:56;;;;;;;17.88;3.10;;;11.90;91.30;;;;;;4997530;28;20196;-90
2022/01/30 12:23:30;;;;;;;49.22;5.82;;;11.90;90.80;;;;;;4995241;28;20188;-92
2022/01/30 12:26:05;;;;;;;27.65;4.75;;;11.90;88.10;;;;;;4992946;28;20635;-91
2022/01/30 12:28:51;;;;;;;25.10;3.92;;;11.90;87.10;;;;;;4984849;28;20663;-91
2022/01/30 12:31:34;;;;;;;20.35;4.38;;;11.90;87.60;;;;;;4997573;28;20590;-91
2022/01/30 12:34:07;;;;;;;59.55;8.43;;;11.90;87.00;;;;;;5003968;28;20172;-90
2022/01/30 12:36:42;;;;;;;40.15;6.63;;;11.90;84.40;;;;;;5008384;28;20200;-91
2022/01/30 12:39:27;;;;;;;38.40;7.38;;;11.90;84.50;;;;;;4996280;28;20182;-91
2022/01/30 12:41:54;;;;;;;44.22;5.68;;;11.90;83.30;;;;;;4996575;28;20271;-90
2022/01/30 12:44:21;;;;;;;21.08;2.85;;;11.80;82.30;;;;;;4996091;28;20187;-92
2022/01/30 12:46:50;;;;;;;31.33;5.22;;;11.90;83.10;;;;;;4996309;28;20550;-91
2022/01/30 12:49:18;;;;;;;43.75;6.18;;;11.90;81.90;;;;;;4996229;28;20175;-91
2022/01/30 12:52:06;;;;;;;65.72;8.40;;;11.90;80.50;;;;;;4996774;28;20195;-90
2022/01/30 12:54:37;;;;;;;71.15;12.35;;;11.90;78.80;;;;;;4996321;28;20175;-91
2022/01/30 12:57:04;;;;;;;42.90;5.65;;;11.80;79.10;;;;;;4996484;28;20239;-91
2022/01/30 12:59:30;;;;;;;50.08;6.57;;;11.80;79.70;;;;;;4995908;28;20190;-92
2022/01/30 13:02:07;;;;;;;48.85;8.13;;;11.80;79.40;;;;;;4995993;28;20708;-91
2022/01/30 13:04:33;;;;;;;31.38;6.07;;;11.70;79.60;;;;;;4994585;28;20251;-90
2022/01/30 13:06:59;;;;;;;56.63;9.07;;;11.70;78.80;;;;;;4998851;28;20184;-91
2022/01/30 13:09:28;;;;;;;62.00;8.63;;;11.70;79.80;;;;;;4994906;28;20223;-91
2022/01/30 13:11:55;;;;;;;54.42;8.90;;;11.70;79.20;;;;;;4994768;28;20280;-91
2022/01/30 13:14:30;;;;;;;42.65;7.35;;;11.70;79.00;;;;;;4995378;28;20168;-90
2022/01/30 13:16:56;;;;;;;76.80;9.77;;;11.70;79.40;;;;;;4995615;28;20207;-90
2022/01/30 13:19:34;;;;;;;69.77;10.20;;;11.80;78.80;;;;;;4994397;28;20176;-90
2022/01/30 13:22:03;;;;;;;32.42;5.03;;;11.80;78.70;;;;;;5008761;28;20179;-91
2022/01/30 13:24:30;;;;;;;27.20;4.97;;;11.90;78.80;;;;;;5000818;28;20184;-91
2022/01/30 13:27:02;;;;;;;41.47;5.78;;;11.90;79.20;;;;;;4996239;28;20188;-91
2022/01/30 13:29:31;;;;;;;17.02;3.80;;;11.90;79.50;;;;;;4996486;28;20183;-91
2022/01/30 13:31:59;;;;;;;37.40;6.18;;;11.90;78.70;;;;;;4996429;28;20211;-91
2022/01/30 13:34:29;;;;;;;34.95;5.97;;;11.90;78.80;;;;;;4995097;28;20179;-91
2022/01/30 13:37:04;;;;;;;43.20;4.90;;;11.80;79.30;;;;;;4995524;28;20556;-90
2022/01/30 13:39:41;;;;;;;23.50;4.78;;;11.80;80.10;;;;;;4998851;28;20551;-91
2022/01/30 13:47:59;;;;;;;63.65;7.32;;;11.90;77.40;;;;;;4997018;28;20180;-91
2022/01/30 13:50:34;;;;;;;51.85;7.32;;;11.80;76.60;;;;;;4995682;28;20579;-91
2022/01/30 13:53:08;;;;;;;59.42;9.00;;;11.80;77.10;;;;;;4995004;28;20178;-91
2022/01/30 13:55:36;;;;;;;50.42;5.65;;;11.70;76.80;;;;;;4995528;28;20286;-91